Terminal Aerodrome Forecast
Issued by NWS Twin Cities, MN

Home | Current Version | Previous Version | Graphics & Text | Print | Product List | Glossary On
Versions: 1 2 3 4 5 6 7 8 9 10 11 12 13 14 15 16 17 18 19 20 21 22 23 24 25
547
FTUS43 KMPX 162339
TAFMSP
TAF
KMSP 162339Z 1700/1806 14014G21KT P6SM BKN020 OVC070
      TEMPO 1705/1709 SCT020 OVC070
     FM171400 15011KT 6SM -DZ BR OVC014
     FM171600 15008KT 5SM -DZ BR OVC010
     FM172300 34006KT P6SM OVC015=

USA.gov is the U.S. government's official web portal to all federal, state and local government web resources and services.